Time;durP1;ratioP1;P1;durP2;ratioP2;P2;SDS_P1;SDS_P2;PMS_P1;PMS_P2;Temp;Humidity;BMP_temperature;BMP_pressure;BME280_temperature;BME280_humidity;BME280_pressure;Samples;Min_cycle;Max_cycle;Signal;HPM_P1;HPM_P2
2022/10/16 07:14:18;;;;;;;0.90;0.90;;;20.10;99.90;;;;;;5168399;27;20849;-70
2022/10/16 07:16:45;;;;;;;1.10;0.80;;;20.10;99.90;;;;;;5152525;27;20432;-68
2022/10/16 07:19:14;;;;;;;0.77;0.77;;;20.10;99.90;;;;;;5152346;27;20436;-69
2022/10/16 07:21:42;;;;;;;1.43;1.03;;;20.20;99.90;;;;;;5134247;27;20811;-69
2022/10/16 07:24:13;;;;;;;0.93;0.93;;;20.20;99.90;;;;;;5130991;28;20432;-69
2022/10/16 07:26:41;;;;;;;1.13;1.13;;;20.30;99.90;;;;;;5131618;28;20873;-69
2022/10/16 07:29:08;;;;;;;0.90;0.90;;;20.30;99.90;;;;;;5132080;28;20794;-67
2022/10/16 07:31:38;;;;;;;0.80;0.80;;;20.40;99.90;;;;;;5133715;28;20556;-68
2022/10/16 07:34:06;;;;;;;0.60;0.60;;;20.40;99.90;;;;;;5132727;27;20499;-68
2022/10/16 07:36:33;;;;;;;0.70;0.70;;;20.40;99.90;;;;;;5131148;28;20783;-65
2022/10/16 07:38:59;;;;;;;1.00;1.00;;;20.50;99.90;;;;;;5131022;28;20504;-69
2022/10/16 07:41:26;;;;;;;0.97;0.97;;;20.50;99.90;;;;;;5130953;27;20575;-67
2022/10/16 07:43:54;;;;;;;1.00;1.00;;;20.50;99.90;;;;;;5130308;27;20449;-67
2022/10/16 07:46:23;;;;;;;0.83;0.83;;;20.50;99.90;;;;;;5130613;28;20509;-69
2022/10/16 07:48:52;;;;;;;1.43;1.00;;;20.50;99.90;;;;;;5129975;28;20464;-68
2022/10/16 07:51:20;;;;;;;0.90;0.87;;;20.50;99.90;;;;;;5130514;28;20548;-69
2022/10/16 07:53:47;;;;;;;1.10;1.00;;;20.60;99.90;;;;;;5130164;28;20481;-66
2022/10/16 07:56:15;;;;;;;2.07;0.90;;;20.60;99.90;;;;;;5130460;28;20480;-66
2022/10/16 07:58:42;;;;;;;0.70;0.70;;;20.60;99.90;;;;;;5130206;28;20922;-68
2022/10/16 08:01:10;;;;;;;1.00;1.00;;;20.60;99.90;;;;;;5130109;28;20496;-69
2022/10/16 08:03:37;;;;;;;1.13;1.03;;;20.70;99.90;;;;;;5130098;28;20463;-68
2022/10/16 08:06:06;;;;;;;1.10;1.10;;;20.60;99.90;;;;;;5130335;28;20532;-69
2022/10/16 08:08:33;;;;;;;1.03;1.00;;;20.70;99.90;;;;;;5130384;27;20443;-70
2022/10/16 08:11:00;;;;;;;1.40;1.30;;;20.70;99.90;;;;;;5129842;27;20551;-70
2022/10/16 08:13:27;;;;;;;1.13;1.13;;;20.70;99.90;;;;;;5129634;28;20477;-71
2022/10/16 08:15:55;;;;;;;0.60;0.60;;;20.70;99.90;;;;;;5129999;28;20450;-68
2022/10/16 08:18:23;;;;;;;0.80;0.77;;;20.70;99.90;;;;;;5129719;28;20483;-68
2022/10/16 08:20:56;;;;;;;1.83;1.73;;;20.70;99.90;;;;;;5129329;27;20463;-68
2022/10/16 08:23:25;;;;;;;0.90;0.90;;;20.70;99.90;;;;;;5129472;28;20447;-72
2022/10/16 08:25:53;;;;;;;1.03;0.73;;;20.70;99.90;;;;;;5116078;28;20444;-70
2022/10/16 08:28:20;;;;;;;0.80;0.80;;;20.70;99.90;;;;;;5116605;28;20886;-69
2022/10/16 08:30:47;;;;;;;0.90;0.70;;;20.60;99.90;;;;;;5115975;28;20465;-68
2022/10/16 08:33:14;;;;;;;0.93;0.80;;;20.70;99.90;;;;;;5095197;28;20478;-69
2022/10/16 08:35:41;;;;;;;0.80;0.80;;;20.70;99.90;;;;;;5096054;28;21189;-69
2022/10/16 08:38:08;;;;;;;1.73;1.30;;;20.80;99.90;;;;;;5095683;28;20449;-68
2022/10/16 08:40:38;;;;;;;0.90;0.90;;;20.80;99.90;;;;;;5107466;28;20884;-69
2022/10/16 08:43:30;;;;;;;0.80;0.80;;;20.80;99.90;;;;;;5115099;28;20532;-67
2022/10/16 08:46:19;;;;;;;0.77;0.77;;;20.70;99.90;;;;;;5115515;28;20472;-69
2022/10/16 08:48:48;;;;;;;1.00;0.90;;;20.80;99.90;;;;;;5115583;28;20469;-69
2022/10/16 08:51:21;;;;;;;1.60;0.97;;;20.80;99.90;;;;;;5115027;28;20532;-70
2022/10/16 08:53:54;;;;;;;0.80;0.80;;;20.80;99.90;;;;;;5115054;28;20552;-70
2022/10/16 08:56:23;;;;;;;1.27;1.27;;;20.80;99.90;;;;;;5115467;28;20442;-70
2022/10/16 08:58:52;;;;;;;1.20;1.20;;;20.80;99.90;;;;;;5115688;28;20450;-70
2022/10/16 09:01:22;;;;;;;1.42;1.30;;;20.70;99.90;;;;;;5115489;28;20428;-71
2022/10/16 09:04:18;;;;;;;2.20;2.00;;;20.80;99.90;;;;;;5115639;28;20207;-68
2022/10/16 09:06:47;;;;;;;8.83;2.70;;;20.90;99.90;;;;;;5115261;28;20444;-69
2022/10/16 09:09:37;;;;;;;8.40;3.20;;;20.90;99.90;;;;;;5115145;28;20991;-70
2022/10/16 09:12:13;;;;;;;6.00;2.73;;;20.90;99.90;;;;;;5115070;28;20445;-71
2022/10/16 09:15:02;;;;;;;8.57;3.47;;;20.90;99.90;;;;;;5114769;28;20582;-71
2022/10/16 09:17:41;;;;;;;5.53;3.00;;;20.90;99.90;;;;;;5115335;28;20487;-70
2022/10/16 09:20:20;;;;;;;5.53;2.87;;;20.90;99.90;;;;;;5114884;28;20880;-71
2022/10/16 09:22:47;;;;;;;4.97;2.63;;;20.90;99.90;;;;;;5115211;28;20857;-72
2022/10/16 09:25:16;;;;;;;4.37;2.73;;;20.90;99.90;;;;;;5114326;28;20521;-69
2022/10/16 09:27:48;;;;;;;4.13;2.07;;;21.00;99.90;;;;;;5114663;28;20445;-70
2022/10/16 09:30:17;;;;;;;5.97;3.10;;;20.90;99.90;;;;;;5114716;28;20541;-70
2022/10/16 09:32:45;;;;;;;3.50;2.40;;;20.90;99.90;;;;;;5114826;28;20448;-70
2022/10/16 09:35:16;;;;;;;4.33;2.90;;;20.90;99.90;;;;;;5114127;28;20537;-70
2022/10/16 09:37:45;;;;;;;4.53;2.60;;;20.90;99.90;;;;;;5113563;28;20457;-71
2022/10/16 09:40:25;;;;;;;5.67;2.70;;;20.80;99.90;;;;;;5114080;28;20911;-70
2022/10/16 09:42:58;;;;;;;6.80;2.87;;;20.80;99.90;;;;;;5114159;28;20862;-70
2022/10/16 09:45:25;;;;;;;4.93;3.07;;;20.80;99.90;;;;;;5114191;28;20442;-70
2022/10/16 09:47:52;;;;;;;3.23;2.10;;;20.80;99.90;;;;;;5114153;28;20532;-70
2022/10/16 09:50:26;;;;;;;5.57;2.00;;;20.80;99.90;;;;;;5113840;28;20540;-69
2022/10/16 09:53:09;;;;;;;4.77;2.20;;;20.80;99.90;;;;;;5113853;28;20888;-70
2022/10/16 09:55:36;;;;;;;2.20;2.00;;;20.80;99.90;;;;;;5113682;28;20443;-70
2022/10/16 09:58:13;;;;;;;7.50;2.90;;;20.80;99.90;;;;;;5114089;28;20528;-71
2022/10/16 10:00:49;;;;;;;8.73;2.77;;;20.80;99.90;;;;;;5113819;28;20572;-70
2022/10/16 10:03:34;;;;;;;2.53;2.20;;;20.80;99.90;;;;;;5113571;28;20437;-71
2022/10/16 10:06:04;;;;;;;2.80;2.40;;;20.70;99.90;;;;;;5113757;28;20532;-70
2022/10/16 10:08:31;;;;;;;3.20;2.30;;;20.70;99.90;;;;;;5113904;28;20445;-70
2022/10/16 10:10:58;;;;;;;2.03;1.83;;;20.70;99.90;;;;;;5113152;28;20511;-70
2022/10/16 10:13:27;;;;;;;3.90;1.67;;;20.80;99.90;;;;;;5112504;28;20566;-70
2022/10/16 10:15:54;;;;;;;2.33;1.87;;;20.80;99.90;;;;;;5113307;28;20437;-69
2022/10/16 10:18:23;;;;;;;2.90;1.93;;;20.90;99.90;;;;;;5113371;28;20485;-69
2022/10/16 10:20:59;;;;;;;1.73;1.43;;;20.90;99.90;;;;;;5112980;28;20469;-69
2022/10/16 10:23:28;;;;;;;2.60;1.80;;;20.90;99.90;;;;;;5112786;27;20468;-70
2022/10/16 10:26:02;;;;;;;2.53;1.83;;;21.00;99.90;;;;;;5120049;27;20521;-69
2022/10/16 10:28:54;;;;;;;4.00;1.97;;;21.00;99.90;;;;;;5112885;28;20446;-70
2022/10/16 10:31:25;;;;;;;1.73;1.63;;;21.00;99.90;;;;;;5113009;28;20465;-68
2022/10/16 10:33:58;;;;;;;1.53;1.30;;;21.00;99.90;;;;;;5112330;28;20531;-68
2022/10/16 10:36:33;;;;;;;2.60;1.37;;;21.00;99.90;;;;;;5113128;28;20499;-68
2022/10/16 10:39:02;;;;;;;2.20;1.60;;;21.00;99.90;;;;;;5112947;28;20441;-67
2022/10/16 10:42:11;;;;;;;3.77;1.50;;;21.00;99.90;;;;;;5112773;28;20466;-68
2022/10/16 10:45:16;;;;;;;1.70;1.60;;;21.10;99.90;;;;;;5106678;28;20452;-68
2022/10/16 10:47:56;;;;;;;2.40;2.20;;;21.10;99.90;;;;;;5112740;28;20884;-69
2022/10/16 10:50:29;;;;;;;1.87;1.60;;;21.10;99.90;;;;;;5112543;28;20480;-68
2022/10/16 10:53:03;;;;;;;2.57;1.60;;;21.10;99.90;;;;;;5111907;28;20437;-68
2022/10/16 16:11:43;;;;;;;0.60;0.60;;;21.20;99.90;;;;;;5167860;27;20591;-75
2022/10/16 16:14:12;;;;;;;0.90;0.90;;;21.20;99.90;;;;;;5131158;27;20520;-76
2022/10/16 16:16:41;;;;;;;0.80;0.80;;;21.30;99.90;;;;;;5123783;28;20986;-76
2022/10/16 16:19:09;;;;;;;1.77;0.77;;;21.30;99.90;;;;;;5110256;28;20868;-76
2022/10/16 16:21:36;;;;;;;1.30;1.20;;;21.40;99.90;;;;;;5110229;28;20475;-76
2022/10/16 16:24:07;;;;;;;0.67;0.63;;;21.40;99.90;;;;;;5132074;22;20473;-67
2022/10/16 16:26:36;;;;;;;1.10;1.00;;;21.40;99.90;;;;;;5077834;28;21026;-67
2022/10/16 16:29:04;;;;;;;0.73;0.73;;;21.50;99.90;;;;;;5075717;28;20451;-68
2022/10/16 16:31:33;;;;;;;0.80;0.80;;;21.50;99.90;;;;;;5069534;28;20574;-70
2022/10/16 16:34:00;;;;;;;0.97;0.97;;;21.50;99.90;;;;;;5069268;28;20538;-71
2022/10/16 16:36:27;;;;;;;1.03;0.83;;;21.60;99.90;;;;;;5065891;28;20541;-70
2022/10/16 16:38:54;;;;;;;1.10;1.03;;;21.60;99.90;;;;;;5068933;28;20746;-71
2022/10/16 16:41:23;;;;;;;1.20;1.00;;;21.60;99.90;;;;;;5068806;28;21004;-71
2022/10/16 16:43:51;;;;;;;0.70;0.70;;;21.60;99.90;;;;;;5069062;28;20439;-70
2022/10/16 16:46:20;;;;;;;0.87;0.87;;;21.60;99.90;;;;;;5069757;28;20493;-70
2022/10/16 16:48:49;;;;;;;1.17;1.07;;;21.60;99.90;;;;;;5070271;28;20833;-71
2022/10/16 16:51:19;;;;;;;1.27;0.67;;;21.70;99.90;;;;;;5069297;28;20483;-72
2022/10/16 16:53:48;;;;;;;0.57;0.57;;;21.70;99.90;;;;;;5069727;28;20490;-71
2022/10/16 16:56:15;;;;;;;1.13;1.13;;;21.70;99.90;;;;;;5069116;28;20531;-71
2022/10/16 16:58:42;;;;;;;0.80;0.80;;;21.70;99.90;;;;;;5069414;28;20521;-71
2022/10/16 17:01:11;;;;;;;1.10;1.10;;;21.70;99.90;;;;;;5069329;28;20436;-71
2022/10/16 17:03:43;;;;;;;1.20;1.10;;;21.70;99.90;;;;;;5049259;28;20527;-71
2022/10/16 17:06:11;;;;;;;1.20;0.80;;;21.70;99.90;;;;;;5049327;28;20506;-70
2022/10/16 17:08:39;;;;;;;0.77;0.70;;;21.80;99.90;;;;;;5049636;28;20535;-71
2022/10/16 17:11:12;;;;;;;1.00;0.90;;;21.80;99.90;;;;;;5062090;28;20485;-70
2022/10/16 17:13:39;;;;;;;1.13;0.80;;;21.80;99.90;;;;;;5068705;28;20519;-70
2022/10/16 17:16:07;;;;;;;0.80;0.80;;;21.90;99.90;;;;;;5068519;28;20552;-71
2022/10/16 17:18:35;;;;;;;1.27;0.90;;;21.90;99.90;;;;;;5068560;28;20444;-68
2022/10/16 17:21:05;;;;;;;0.80;0.80;;;21.90;99.90;;;;;;5066547;28;20454;-68
2022/10/16 17:23:32;;;;;;;0.97;0.87;;;21.80;99.90;;;;;;5055047;28;20448;-68
2022/10/16 17:26:04;;;;;;;2.00;0.90;;;21.80;99.90;;;;;;5054968;28;20574;-69
2022/10/16 17:28:31;;;;;;;1.40;1.20;;;21.80;99.90;;;;;;5054305;28;20451;-70
2022/10/16 17:31:08;;;;;;;2.30;1.70;;;21.80;99.90;;;;;;5053701;28;20557;-69
2022/10/16 17:33:35;;;;;;;4.13;1.73;;;21.80;99.90;;;;;;5054032;28;20440;-69
2022/10/16 17:36:04;;;;;;;1.63;1.50;;;21.70;99.90;;;;;;5054223;28;20837;-70
2022/10/16 17:38:31;;;;;;;2.80;1.20;;;21.70;99.90;;;;;;5054159;28;21017;-69
2022/10/16 17:40:59;;;;;;;2.17;1.50;;;21.70;99.90;;;;;;5053554;28;20449;-69
2022/10/16 17:43:26;;;;;;;1.70;1.60;;;21.80;99.90;;;;;;5053359;28;20482;-70
2022/10/16 17:45:52;;;;;;;1.20;1.10;;;21.70;99.90;;;;;;5054018;28;20827;-69
2022/10/16 17:48:19;;;;;;;1.00;0.80;;;21.70;99.90;;;;;;5054082;28;20448;-68
2022/10/16 17:50:47;;;;;;;3.33;1.43;;;21.70;99.90;;;;;;5052796;28;20504;-69
2022/10/16 17:53:15;;;;;;;2.93;2.00;;;21.70;99.90;;;;;;5052086;28;20938;-68
2022/10/16 17:55:42;;;;;;;1.70;1.53;;;21.80;99.90;;;;;;5053797;28;20464;-69
2022/10/16 17:58:10;;;;;;;2.60;1.40;;;21.80;99.90;;;;;;5053858;28;20898;-68
2022/10/16 18:00:37;;;;;;;7.20;1.50;;;21.70;99.90;;;;;;5053665;28;20448;-67
2022/10/16 18:03:04;;;;;;;1.93;1.50;;;21.80;99.90;;;;;;5053655;28;20448;-70
2022/10/16 18:05:31;;;;;;;2.97;2.03;;;21.80;99.90;;;;;;5053487;28;20547;-71
2022/10/16 18:07:58;;;;;;;2.30;2.10;;;21.70;99.90;;;;;;5053614;28;20821;-71
2022/10/16 18:10:26;;;;;;;2.50;1.87;;;21.80;99.90;;;;;;5053322;28;20864;-68
2022/10/16 18:12:53;;;;;;;2.17;1.97;;;21.80;99.90;;;;;;5054062;28;20501;-68
2022/10/16 18:15:20;;;;;;;1.70;1.60;;;21.80;99.90;;;;;;5053435;28;20471;-69
2022/10/16 18:17:47;;;;;;;2.37;2.20;;;21.80;99.90;;;;;;5053183;28;20451;-70
2022/10/16 18:20:14;;;;;;;2.50;1.93;;;21.80;99.90;;;;;;5053137;28;20490;-70
2022/10/16 18:22:41;;;;;;;2.50;2.17;;;21.80;99.90;;;;;;5053266;28;20543;-69
2022/10/16 18:25:09;;;;;;;3.63;2.50;;;21.80;99.90;;;;;;5053354;28;20486;-69
2022/10/16 18:27:37;;;;;;;2.00;1.90;;;21.80;99.90;;;;;;5053302;28;20526;-68
2022/10/16 18:30:04;;;;;;;2.70;2.50;;;21.80;99.90;;;;;;5033545;28;21022;-70
2022/10/16 18:32:32;;;;;;;3.30;2.97;;;21.80;99.90;;;;;;5049543;28;20527;-72
2022/10/16 18:34:58;;;;;;;3.90;2.20;;;21.80;99.90;;;;;;5050797;28;20892;-72
2022/10/16 18:37:27;;;;;;;4.43;2.90;;;21.90;99.90;;;;;;5053039;28;20448;-72
2022/10/16 18:39:54;;;;;;;3.27;3.00;;;21.80;99.90;;;;;;5052426;28;20441;-73
2022/10/16 18:42:20;;;;;;;2.57;2.43;;;21.90;99.90;;;;;;5052779;28;20444;-69
2022/10/16 18:44:49;;;;;;;2.43;2.20;;;21.80;99.90;;;;;;5052512;28;20468;-70
2022/10/16 18:47:16;;;;;;;4.70;2.60;;;21.80;99.90;;;;;;5052612;28;20535;-71
2022/10/16 18:49:45;;;;;;;3.60;3.30;;;21.90;99.90;;;;;;5052771;28;20791;-71
2022/10/16 18:52:12;;;;;;;4.07;3.60;;;21.90;99.90;;;;;;5052332;28;20560;-69
2022/10/16 18:54:39;;;;;;;4.73;3.33;;;21.90;99.90;;;;;;5052237;28;20570;-71
2022/10/16 18:57:07;;;;;;;3.67;3.37;;;21.90;99.90;;;;;;5052456;28;20510;-71
2022/10/16 18:59:34;;;;;;;3.07;2.80;;;21.90;99.90;;;;;;5052491;28;20480;-69
2022/10/16 19:02:02;;;;;;;5.57;2.70;;;21.90;99.90;;;;;;5052644;28;20491;-70
2022/10/16 19:04:29;;;;;;;4.13;3.63;;;21.80;99.90;;;;;;5051618;28;20465;-69
2022/10/16 19:06:56;;;;;;;2.70;2.50;;;21.90;99.90;;;;;;5052154;28;20451;-70
2022/10/16 19:09:24;;;;;;;3.07;2.80;;;21.90;99.90;;;;;;5052180;28;20502;-72
2022/10/16 19:11:51;;;;;;;2.80;2.33;;;21.90;99.90;;;;;;5052370;28;20494;-70
2022/10/16 19:14:20;;;;;;;3.23;2.60;;;21.90;99.90;;;;;;5051869;28;20479;-71
2022/10/16 19:16:48;;;;;;;4.07;2.60;;;21.90;99.90;;;;;;5051990;28;20456;-70
2022/10/16 19:19:18;;;;;;;2.30;2.10;;;21.80;99.90;;;;;;5051725;28;20799;-70
2022/10/16 19:21:46;;;;;;;3.37;3.07;;;21.90;99.90;;;;;;5052123;28;20452;-71
2022/10/16 19:24:15;;;;;;;2.83;2.63;;;21.90;99.90;;;;;;5051282;28;20508;-71
2022/10/16 19:26:42;;;;;;;2.80;2.60;;;21.90;99.90;;;;;;5051909;28;20516;-72
2022/10/16 19:29:09;;;;;;;3.87;2.47;;;21.80;99.90;;;;;;5051332;28;20945;-71
2022/10/16 19:31:36;;;;;;;1.90;1.80;;;21.90;99.90;;;;;;5051978;28;20480;-68
2022/10/16 19:34:05;;;;;;;2.43;2.23;;;21.90;99.90;;;;;;5051236;28;20474;-68
2022/10/16 19:36:35;;;;;;;2.60;2.40;;;21.90;99.90;;;;;;5050633;28;20449;-73
2022/10/16 19:39:04;;;;;;;3.13;2.10;;;21.90;99.90;;;;;;5051551;28;20543;-68
2022/10/16 19:41:32;;;;;;;2.90;2.17;;;21.90;99.90;;;;;;5051194;28;20519;-70
2022/10/16 19:44:01;;;;;;;3.30;3.00;;;21.80;99.90;;;;;;5050055;28;20440;-68
2022/10/16 19:46:28;;;;;;;2.83;2.40;;;21.80;99.90;;;;;;5044498;28;20483;-68
2022/10/16 19:48:56;;;;;;;2.13;2.03;;;21.90;99.90;;;;;;5051464;28;20453;-68
2022/10/16 19:51:25;;;;;;;3.93;2.30;;;21.90;99.90;;;;;;5051709;28;20522;-68
2022/10/16 19:53:57;;;;;;;1.50;1.40;;;21.80;99.90;;;;;;5050950;28;20444;-67
2022/10/16 19:56:25;;;;;;;3.17;1.70;;;21.80;99.90;;;;;;5051381;28;20532;-69
2022/10/16 19:58:53;;;;;;;1.67;1.53;;;21.80;99.90;;;;;;5051410;28;20449;-69
2022/10/16 20:01:21;;;;;;;1.83;1.73;;;21.80;99.90;;;;;;5051493;28;20531;-69
2022/10/16 20:03:49;;;;;;;1.87;1.77;;;21.80;99.90;;;;;;5050880;28;20531;-69
2022/10/16 20:06:17;;;;;;;2.13;1.93;;;21.80;99.90;;;;;;5051220;28;20444;-69
2022/10/16 20:08:46;;;;;;;1.77;1.60;;;21.80;99.90;;;;;;5051480;28;20925;-69
2022/10/16 20:11:16;;;;;;;5.70;2.27;;;21.80;99.90;;;;;;5051468;28;20483;-69
2022/10/16 20:13:43;;;;;;;2.67;1.87;;;21.80;99.90;;;;;;5051265;28;20535;-69
2022/10/16 20:16:11;;;;;;;2.27;1.60;;;21.80;99.90;;;;;;5051150;28;20436;-69
2022/10/16 20:18:39;;;;;;;1.77;1.67;;;21.80;99.90;;;;;;5051368;28;20813;-69
2022/10/16 20:21:09;;;;;;;3.43;2.13;;;21.80;99.90;;;;;;5051006;28;20450;-68
2022/10/16 20:23:36;;;;;;;1.87;1.60;;;21.80;99.90;;;;;;5050843;28;20448;-68
2022/10/16 20:26:03;;;;;;;1.20;1.13;;;21.80;99.90;;;;;;5051020;28;20472;-67
2022/10/16 20:28:32;;;;;;;1.37;1.30;;;21.80;99.90;;;;;;5051232;28;20548;-67
2022/10/16 20:30:59;;;;;;;2.07;1.30;;;21.80;99.90;;;;;;5051149;28;21009;-68
2022/10/16 20:33:26;;;;;;;2.10;1.87;;;21.80;99.90;;;;;;5051055;28;20814;-68
2022/10/16 20:35:53;;;;;;;1.60;1.50;;;21.70;99.90;;;;;;5050475;28;20556;-69
2022/10/16 20:38:19;;;;;;;1.37;1.20;;;21.70;99.90;;;;;;5051021;28;20531;-69
2022/10/16 20:40:47;;;;;;;1.30;1.30;;;21.80;99.90;;;;;;5051096;28;20479;-68
2022/10/16 20:43:16;;;;;;;1.63;0.77;;;21.70;99.90;;;;;;5050794;28;20445;-69
2022/10/16 20:45:45;;;;;;;0.87;0.87;;;21.70;99.90;;;;;;5050847;28;20836;-68
2022/10/16 20:48:14;;;;;;;1.20;1.10;;;21.70;99.90;;;;;;5050473;28;20448;-69
2022/10/16 20:50:42;;;;;;;1.20;1.10;;;21.70;99.90;;;;;;5051052;28;20444;-68
2022/10/16 20:53:09;;;;;;;1.80;1.43;;;21.70;99.90;;;;;;5050124;28;20482;-68
2022/10/16 20:55:37;;;;;;;1.50;1.40;;;21.70;99.90;;;;;;5050541;28;20467;-68
2022/10/16 20:58:04;;;;;;;1.20;1.10;;;21.70;99.90;;;;;;5053838;28;20445;-68
2022/10/16 21:00:31;;;;;;;0.83;0.83;;;21.70;99.90;;;;;;5054633;28;20451;-68
2022/10/16 21:03:00;;;;;;;1.50;1.40;;;21.70;99.90;;;;;;5054057;28;20884;-69
2022/10/16 21:05:27;;;;;;;1.30;1.20;;;21.70;99.90;;;;;;5054431;28;20526;-69
2022/10/16 21:07:54;;;;;;;1.30;0.97;;;21.70;99.90;;;;;;5054449;28;20445;-68
2022/10/16 21:10:21;;;;;;;1.00;1.00;;;21.70;99.90;;;;;;5054652;28;20820;-68
2022/10/16 21:12:48;;;;;;;2.47;1.10;;;21.70;99.90;;;;;;5054209;28;20862;-69
2022/10/16 21:15:15;;;;;;;1.20;1.10;;;21.70;99.90;;;;;;5054391;28;20895;-68
2022/10/16 21:17:42;;;;;;;1.33;1.33;;;21.70;99.90;;;;;;5054222;28;20484;-68
2022/10/16 21:20:10;;;;;;;1.17;1.17;;;21.60;99.90;;;;;;5054330;28;20528;-68
2022/10/16 21:22:37;;;;;;;0.90;0.90;;;21.70;99.90;;;;;;5054060;28;20528;-69
2022/10/16 21:25:05;;;;;;;2.40;1.23;;;21.70;99.90;;;;;;5053531;28;20511;-68
2022/10/16 21:27:36;;;;;;;1.40;1.30;;;21.60;99.90;;;;;;5054340;28;20822;-68
2022/10/16 21:30:03;;;;;;;1.00;0.97;;;21.60;99.90;;;;;;5054082;28;20441;-69
2022/10/16 21:32:30;;;;;;;1.00;1.00;;;21.60;99.90;;;;;;5053747;28;20486;-68
2022/10/16 21:34:57;;;;;;;1.27;1.17;;;21.60;99.90;;;;;;5053178;28;20552;-69
2022/10/16 21:37:25;;;;;;;1.03;1.03;;;21.60;99.90;;;;;;5049672;28;20449;-69
2022/10/16 21:39:54;;;;;;;1.37;1.27;;;21.60;99.90;;;;;;5053642;28;20843;-69
2022/10/16 21:42:21;;;;;;;1.80;1.03;;;21.60;99.90;;;;;;5053904;28;20444;-69
2022/10/16 21:44:48;;;;;;;1.27;0.80;;;21.60;99.90;;;;;;5053384;28;20468;-69
2022/10/16 21:47:15;;;;;;;1.00;0.70;;;21.60;99.90;;;;;;5053948;28;20479;-69
2022/10/16 21:49:42;;;;;;;1.30;0.90;;;21.60;99.90;;;;;;5053294;28;21097;-68
2022/10/16 21:52:09;;;;;;;0.90;0.80;;;21.60;99.90;;;;;;5053847;28;20524;-69
2022/10/16 21:54:37;;;;;;;1.77;1.10;;;21.60;99.90;;;;;;5053195;28;20525;-69
2022/10/16 21:57:04;;;;;;;1.00;1.00;;;21.60;99.90;;;;;;5052381;28;20876;-69
2022/10/16 21:59:31;;;;;;;0.90;0.90;;;21.60;99.90;;;;;;5053475;28;20442;-68
2022/10/16 22:01:59;;;;;;;1.83;1.73;;;21.60;99.90;;;;;;5053459;28;20441;-68
2022/10/16 22:04:26;;;;;;;1.00;1.00;;;21.60;99.90;;;;;;5053303;28;20981;-68
2022/10/16 22:06:52;;;;;;;0.83;0.83;;;21.60;99.90;;;;;;5052998;28;20483;-69
2022/10/16 22:09:19;;;;;;;1.10;1.00;;;21.60;99.90;;;;;;5053167;28;20479;-69
2022/10/16 22:11:49;;;;;;;1.10;1.10;;;21.60;99.90;;;;;;5053531;28;20566;-68
2022/10/16 22:14:17;;;;;;;1.17;1.10;;;21.60;99.90;;;;;;5053006;28;20533;-69
2022/10/16 22:16:45;;;;;;;0.90;0.80;;;21.60;99.90;;;;;;5053268;28;20448;-68
2022/10/16 22:19:13;;;;;;;0.80;0.70;;;21.50;99.90;;;;;;5053158;28;20487;-67
2022/10/16 22:21:42;;;;;;;1.20;1.10;;;21.50;99.90;;;;;;5052922;28;20535;-67
2022/10/16 22:24:09;;;;;;;0.90;0.90;;;21.50;99.90;;;;;;5053283;28;21088;-69
2022/10/16 22:26:37;;;;;;;0.93;0.90;;;21.50;99.90;;;;;;5053347;28;20455;-68
2022/10/16 22:29:07;;;;;;;1.13;1.03;;;21.50;99.90;;;;;;5052691;28;20448;-68
2022/10/16 22:31:35;;;;;;;1.17;1.13;;;21.50;99.90;;;;;;5052883;28;20483;-69
2022/10/16 22:34:03;;;;;;;0.97;0.87;;;21.50;99.90;;;;;;5052401;28;20449;-69
2022/10/16 22:36:30;;;;;;;2.07;1.97;;;21.50;99.90;;;;;;5052831;28;20532;-69
2022/10/16 22:38:58;;;;;;;2.43;1.23;;;21.50;99.90;;;;;;5053173;28;20451;-68
2022/10/16 22:41:25;;;;;;;1.00;1.00;;;21.50;99.90;;;;;;5052952;28;20445;-68
2022/10/16 22:43:52;;;;;;;0.80;0.80;;;21.50;99.90;;;;;;5052672;28;20454;-69
2022/10/16 22:46:23;;;;;;;0.73;0.73;;;21.50;99.90;;;;;;5052951;28;20455;-68
2022/10/16 22:48:50;;;;;;;0.80;0.80;;;21.50;99.90;;;;;;5052946;28;20452;-68
2022/10/16 22:51:18;;;;;;;2.70;2.40;;;21.50;99.90;;;;;;5052825;28;20440;-69
2022/10/16 22:53:45;;;;;;;0.70;0.70;;;21.50;99.90;;;;;;5052399;28;20476;-67
2022/10/16 22:56:13;;;;;;;0.80;0.80;;;21.50;99.90;;;;;;5052733;28;20441;-68
2022/10/16 22:58:40;;;;;;;0.70;0.70;;;21.50;99.90;;;;;;5052657;28;20962;-69
2022/10/16 23:01:12;;;;;;;1.20;1.20;;;21.50;99.90;;;;;;5052718;28;20881;-68
2022/10/16 23:03:40;;;;;;;0.80;0.80;;;21.50;99.90;;;;;;5052410;28;20443;-69
2022/10/16 23:06:07;;;;;;;1.47;1.37;;;21.50;99.90;;;;;;5052402;28;20491;-69
2022/10/16 23:08:34;;;;;;;1.40;1.30;;;21.50;99.90;;;;;;5052381;28;20452;-68
2022/10/16 23:11:04;;;;;;;0.97;0.90;;;21.50;99.90;;;;;;5051819;28;20531;-68
2022/10/16 23:13:31;;;;;;;0.80;0.80;;;21.50;99.90;;;;;;5051775;28;20837;-68
2022/10/16 23:15:58;;;;;;;0.90;0.90;;;21.50;99.90;;;;;;5052382;28;20897;-69
2022/10/16 23:18:25;;;;;;;1.27;1.00;;;21.50;99.90;;;;;;5052746;28;20533;-69
2022/10/16 23:20:53;;;;;;;1.20;1.07;;;21.50;99.90;;;;;;5052140;28;20448;-68
2022/10/16 23:23:20;;;;;;;0.70;0.70;;;21.50;99.90;;;;;;5052058;28;20436;-69
2022/10/16 23:25:47;;;;;;;0.90;0.90;;;21.50;99.90;;;;;;5051574;28;20920;-69
2022/10/16 23:28:14;;;;;;;0.70;0.70;;;21.50;99.90;;;;;;5051664;28;20442;-69
2022/10/16 23:30:41;;;;;;;1.20;1.20;;;21.50;99.90;;;;;;5052239;28;20450;-68
2022/10/16 23:33:08;;;;;;;1.10;1.10;;;21.50;99.90;;;;;;5051310;28;21084;-68
2022/10/16 23:35:38;;;;;;;1.10;1.10;;;21.50;99.90;;;;;;5051315;28;20574;-69
2022/10/16 23:38:06;;;;;;;1.00;0.97;;;21.50;99.90;;;;;;5051746;28;20463;-69
2022/10/16 23:40:33;;;;;;;1.30;1.20;;;21.50;99.90;;;;;;5052040;28;20449;-68
2022/10/16 23:43:00;;;;;;;1.23;1.20;;;21.50;99.90;;;;;;5051046;28;20561;-69
2022/10/16 23:45:27;;;;;;;1.00;1.00;;;21.50;99.90;;;;;;5051807;28;20470;-68
2022/10/16 23:47:54;;;;;;;0.80;0.80;;;21.40;99.90;;;;;;5051554;28;20531;-69
2022/10/16 23:50:20;;;;;;;0.90;0.90;;;21.40;99.90;;;;;;5051852;28;20450;-68
2022/10/16 23:52:47;;;;;;;1.17;1.07;;;21.40;99.90;;;;;;5051432;28;20502;-68
2022/10/16 23:55:16;;;;;;;0.97;0.97;;;21.40;99.90;;;;;;5051551;28;20551;-67
2022/10/16 23:57:42;;;;;;;0.97;0.93;;;21.40;99.90;;;;;;5051608;28;20865;-68
